Portada
METAR-TAF:

METAR-TAF

Aeroports :

Harbin, Xina

latitud: 45-45N, longitud: 126-46E, altitud: 143 m

Observació

L'informe es va fer fa 51 minuts, a les 18:00 UTC
Vent 4 kt del Sud/Sud-Est
Temperatura 17°C
Humitat 100%
Pressió 1011 hPa
Visibilitat 10 km o més
sense núvols per sota de 1500 mi sense presència de cumulonimbus.

METAR: ZYHB 251800Z 15002MPS CAVOK 17/17 Q1011 NOSIG

Hora: 02:51 (18:51 UTC)

Pronòstic

L'informe es va fer fa 5 hores i 45 minuts, a les 13:06 UTC
Pronòstic vàlid del 25 a les 18 UTC al 26 a les 18 UTC
Vent 8 kt del Sud/Sud-Est
Visibilitat: 6000 m
Núvols disperses a una alçada de 3000 ft
Temporalment
l' 26 a les 00 UTC al 26 a les 06 UTC
Escasses núvols a una alçada de 2600 ft, Cumulonimbus.
Cel ennuvolat a una alçada de 3000 ft
tempesta, pluja

TAF: ZYHB 251306Z 2518/2618 16004MPS 6000 SCT030 TX24/2606Z TN15/2521Z TEMPO 2600/2606 -TSRA FEW026CB BKN030

Observacions i pronòstics meteorològics de més de 4000 aeroports (METAR i TAF).

Les estacions disponibles són els punts grocs i vermells al mapa.

Posi el ratolí al punt desitjat per veure el nom de l'estació.

Feu clic per veure les observacions i els pronòstics meteorològics.

Per canviar el mapa: feu clic els botons verds amb una creu de color negre per apropar; al botó verd amb un guió per allunyar la imatge; o en les fletxes verdes per a mapes adjacents.


METAR-TAF: